sensor_id;sensor_type;location;lat;lon;timestamp;P1;durP1;ratioP1;P2;durP2;ratioP2
75139;SDS011;63714;55.812;37.658;2023-06-26T00:00:01;11.18;;;7.90;;
75139;SDS011;63714;55.812;37.658;2023-06-26T00:02:31;10.38;;;7.80;;
75139;SDS011;63714;55.812;37.658;2023-06-26T00:04:58;10.05;;;7.40;;
75139;SDS011;63714;55.812;37.658;2023-06-26T00:07:31;9.43;;;7.72;;
75139;SDS011;63714;55.812;37.658;2023-06-26T00:09:59;10.85;;;7.70;;
75139;SDS011;63714;55.812;37.658;2023-06-26T00:12:26;9.38;;;7.38;;
75139;SDS011;63714;55.812;37.658;2023-06-26T00:14:52;11.90;;;7.32;;
75139;SDS011;63714;55.812;37.658;2023-06-26T00:17:17;11.57;;;8.02;;
75139;SDS011;63714;55.812;37.658;2023-06-26T00:19:44;10.48;;;7.78;;
75139;SDS011;63714;55.812;37.658;2023-06-26T00:22:09;12.20;;;7.55;;
75139;SDS011;63714;55.812;37.658;2023-06-26T00:24:36;11.77;;;7.82;;
75139;SDS011;63714;55.812;37.658;2023-06-26T00:27:01;10.82;;;8.00;;
75139;SDS011;63714;55.812;37.658;2023-06-26T00:29:27;11.77;;;8.90;;
75139;SDS011;63714;55.812;37.658;2023-06-26T00:31:53;12.20;;;8.35;;
75139;SDS011;63714;55.812;37.658;2023-06-26T00:34:18;10.73;;;8.30;;
75139;SDS011;63714;55.812;37.658;2023-06-26T00:36:44;11.40;;;9.07;;
75139;SDS011;63714;55.812;37.658;2023-06-26T00:39:10;11.40;;;8.07;;
75139;SDS011;63714;55.812;37.658;2023-06-26T00:41:37;13.82;;;8.88;;
75139;SDS011;63714;55.812;37.658;2023-06-26T00:44:03;10.82;;;8.18;;
75139;SDS011;63714;55.812;37.658;2023-06-26T00:46:30;12.77;;;8.82;;
75139;SDS011;63714;55.812;37.658;2023-06-26T00:48:56;10.88;;;8.50;;
75139;SDS011;63714;55.812;37.658;2023-06-26T00:51:25;13.15;;;8.98;;
75139;SDS011;63714;55.812;37.658;2023-06-26T00:53:55;11.60;;;8.98;;
75139;SDS011;63714;55.812;37.658;2023-06-26T00:56:21;11.90;;;8.57;;
75139;SDS011;63714;55.812;37.658;2023-06-26T00:58:47;11.40;;;8.05;;
75139;SDS011;63714;55.812;37.658;2023-06-26T01:01:13;13.15;;;8.70;;
75139;SDS011;63714;55.812;37.658;2023-06-26T01:03:45;11.07;;;8.43;;
75139;SDS011;63714;55.812;37.658;2023-06-26T01:06:16;12.68;;;8.60;;
75139;SDS011;63714;55.812;37.658;2023-06-26T01:08:43;13.23;;;9.07;;
75139;SDS011;63714;55.812;37.658;2023-06-26T01:11:11;12.30;;;7.80;;
75139;SDS011;63714;55.812;37.658;2023-06-26T01:13:38;11.85;;;8.50;;
75139;SDS011;63714;55.812;37.658;2023-06-26T01:16:05;12.00;;;8.32;;
75139;SDS011;63714;55.812;37.658;2023-06-26T01:18:31;11.90;;;8.48;;
75139;SDS011;63714;55.812;37.658;2023-06-26T01:20:58;14.13;;;9.18;;
75139;SDS011;63714;55.812;37.658;2023-06-26T01:23:30;11.77;;;8.75;;
75139;SDS011;63714;55.812;37.658;2023-06-26T01:31:08;16.27;;;9.30;;
75139;SDS011;63714;55.812;37.658;2023-06-26T01:33:36;12.93;;;9.00;;
75139;SDS011;63714;55.812;37.658;2023-06-26T01:36:02;15.23;;;10.00;;
75139;SDS011;63714;55.812;37.658;2023-06-26T01:38:28;13.45;;;9.30;;
75139;SDS011;63714;55.812;37.658;2023-06-26T01:40:54;15.23;;;9.85;;
75139;SDS011;63714;55.812;37.658;2023-06-26T01:43:29;17.30;;;10.95;;
75139;SDS011;63714;55.812;37.658;2023-06-26T01:46:10;14.95;;;11.20;;
75139;SDS011;63714;55.812;37.658;2023-06-26T01:49:05;16.90;;;11.20;;
75139;SDS011;63714;55.812;37.658;2023-06-26T01:54:58;16.75;;;11.23;;
75139;SDS011;63714;55.812;37.658;2023-06-26T01:57:45;17.45;;;10.05;;
75139;SDS011;63714;55.812;37.658;2023-06-26T02:00:14;14.15;;;9.80;;
75139;SDS011;63714;55.812;37.658;2023-06-26T02:02:43;17.75;;;10.35;;
75139;SDS011;63714;55.812;37.658;2023-06-26T02:05:10;15.05;;;10.68;;
75139;SDS011;63714;55.812;37.658;2023-06-26T02:07:36;16.20;;;10.52;;
75139;SDS011;63714;55.812;37.658;2023-06-26T02:10:02;15.52;;;10.15;;
75139;SDS011;63714;55.812;37.658;2023-06-26T02:12:31;15.27;;;10.38;;
75139;SDS011;63714;55.812;37.658;2023-06-26T02:14:57;14.90;;;10.70;;
75139;SDS011;63714;55.812;37.658;2023-06-26T02:17:23;15.57;;;10.65;;
75139;SDS011;63714;55.812;37.658;2023-06-26T02:19:49;14.73;;;10.90;;
75139;SDS011;63714;55.812;37.658;2023-06-26T02:22:19;16.50;;;11.25;;
75139;SDS011;63714;55.812;37.658;2023-06-26T02:24:44;15.00;;;10.75;;
75139;SDS011;63714;55.812;37.658;2023-06-26T02:27:10;18.13;;;11.55;;
75139;SDS011;63714;55.812;37.658;2023-06-26T02:29:36;19.88;;;10.18;;
75139;SDS011;63714;55.812;37.658;2023-06-26T02:32:02;15.50;;;10.45;;
75139;SDS011;63714;55.812;37.658;2023-06-26T02:34:28;14.07;;;10.13;;
75139;SDS011;63714;55.812;37.658;2023-06-26T02:36:55;15.20;;;11.00;;
75139;SDS011;63714;55.812;37.658;2023-06-26T02:39:21;15.25;;;10.50;;
75139;SDS011;63714;55.812;37.658;2023-06-26T02:41:47;17.52;;;11.55;;
75139;SDS011;63714;55.812;37.658;2023-06-26T02:44:13;19.02;;;11.35;;
75139;SDS011;63714;55.812;37.658;2023-06-26T02:46:39;17.95;;;12.07;;
75139;SDS011;63714;55.812;37.658;2023-06-26T02:49:06;18.85;;;12.25;;
75139;SDS011;63714;55.812;37.658;2023-06-26T02:51:32;18.00;;;12.35;;
75139;SDS011;63714;55.812;37.658;2023-06-26T02:53:58;17.48;;;12.18;;
75139;SDS011;63714;55.812;37.658;2023-06-26T02:56:24;16.88;;;12.20;;
75139;SDS011;63714;55.812;37.658;2023-06-26T02:58:54;19.73;;;12.00;;
75139;SDS011;63714;55.812;37.658;2023-06-26T03:01:23;20.58;;;13.15;;
75139;SDS011;63714;55.812;37.658;2023-06-26T03:03:49;18.65;;;12.00;;
75139;SDS011;63714;55.812;37.658;2023-06-26T03:06:15;20.33;;;12.95;;
75139;SDS011;63714;55.812;37.658;2023-06-26T03:08:41;19.83;;;12.82;;
75139;SDS011;63714;55.812;37.658;2023-06-26T03:11:07;16.88;;;12.07;;
75139;SDS011;63714;55.812;37.658;2023-06-26T03:13:34;21.98;;;13.00;;
75139;SDS011;63714;55.812;37.658;2023-06-26T03:16:00;17.58;;;12.20;;
75139;SDS011;63714;55.812;37.658;2023-06-26T03:18:26;17.40;;;12.13;;
75139;SDS011;63714;55.812;37.658;2023-06-26T03:20:52;16.90;;;11.13;;
75139;SDS011;63714;55.812;37.658;2023-06-26T03:23:21;16.10;;;11.93;;
75139;SDS011;63714;55.812;37.658;2023-06-26T03:25:47;19.52;;;12.60;;
75139;SDS011;63714;55.812;37.658;2023-06-26T03:28:13;16.13;;;11.30;;
75139;SDS011;63714;55.812;37.658;2023-06-26T03:30:39;15.88;;;11.93;;
75139;SDS011;63714;55.812;37.658;2023-06-26T03:33:05;23.60;;;13.30;;
75139;SDS011;63714;55.812;37.658;2023-06-26T03:35:30;20.08;;;13.40;;
75139;SDS011;63714;55.812;37.658;2023-06-26T03:37:57;20.15;;;12.38;;
75139;SDS011;63714;55.812;37.658;2023-06-26T03:40:23;17.50;;;12.40;;
75139;SDS011;63714;55.812;37.658;2023-06-26T03:42:48;19.23;;;13.30;;
75139;SDS011;63714;55.812;37.658;2023-06-26T03:45:14;19.15;;;13.18;;
75139;SDS011;63714;55.812;37.658;2023-06-26T03:47:40;21.55;;;13.38;;
75139;SDS011;63714;55.812;37.658;2023-06-26T03:50:05;19.27;;;12.88;;
75139;SDS011;63714;55.812;37.658;2023-06-26T03:52:32;19.38;;;12.48;;
75139;SDS011;63714;55.812;37.658;2023-06-26T03:54:57;18.52;;;12.52;;
75139;SDS011;63714;55.812;37.658;2023-06-26T03:57:23;17.73;;;13.18;;
75139;SDS011;63714;55.812;37.658;2023-06-26T03:59:50;18.73;;;12.68;;
75139;SDS011;63714;55.812;37.658;2023-06-26T04:02:16;20.15;;;12.20;;
75139;SDS011;63714;55.812;37.658;2023-06-26T04:04:42;23.92;;;12.30;;
75139;SDS011;63714;55.812;37.658;2023-06-26T04:07:08;17.65;;;12.57;;
75139;SDS011;63714;55.812;37.658;2023-06-26T04:09:34;19.08;;;12.77;;
75139;SDS011;63714;55.812;37.658;2023-06-26T04:11:59;18.50;;;10.70;;
75139;SDS011;63714;55.812;37.658;2023-06-26T04:14:25;15.00;;;11.15;;
75139;SDS011;63714;55.812;37.658;2023-06-26T04:16:51;16.00;;;11.90;;
75139;SDS011;63714;55.812;37.658;2023-06-26T04:19:16;16.10;;;10.38;;
75139;SDS011;63714;55.812;37.658;2023-06-26T04:21:42;14.75;;;10.63;;
75139;SDS011;63714;55.812;37.658;2023-06-26T04:24:08;15.95;;;10.77;;
75139;SDS011;63714;55.812;37.658;2023-06-26T04:26:34;15.30;;;10.50;;
75139;SDS011;63714;55.812;37.658;2023-06-26T04:29:00;15.20;;;11.52;;
75139;SDS011;63714;55.812;37.658;2023-06-26T04:31:25;17.45;;;10.13;;
75139;SDS011;63714;55.812;37.658;2023-06-26T04:33:51;17.58;;;10.27;;
75139;SDS011;63714;55.812;37.658;2023-06-26T04:36:20;15.52;;;9.65;;
75139;SDS011;63714;55.812;37.658;2023-06-26T04:38:46;13.52;;;9.68;;
75139;SDS011;63714;55.812;37.658;2023-06-26T04:41:13;14.55;;;10.23;;
75139;SDS011;63714;55.812;37.658;2023-06-26T04:43:39;14.02;;;10.32;;
75139;SDS011;63714;55.812;37.658;2023-06-26T04:46:05;14.32;;;10.10;;
75139;SDS011;63714;55.812;37.658;2023-06-26T04:48:31;14.20;;;9.80;;
75139;SDS011;63714;55.812;37.658;2023-06-26T04:50:58;15.13;;;10.05;;
75139;SDS011;63714;55.812;37.658;2023-06-26T04:53:24;16.73;;;9.55;;
75139;SDS011;63714;55.812;37.658;2023-06-26T04:55:53;16.00;;;9.40;;
75139;SDS011;63714;55.812;37.658;2023-06-26T04:58:19;14.80;;;9.77;;
75139;SDS011;63714;55.812;37.658;2023-06-26T05:00:45;17.27;;;9.95;;
75139;SDS011;63714;55.812;37.658;2023-06-26T05:03:12;16.45;;;10.15;;
75139;SDS011;63714;55.812;37.658;2023-06-26T05:05:38;15.63;;;9.93;;
75139;SDS011;63714;55.812;37.658;2023-06-26T05:08:16;14.35;;;10.88;;
75139;SDS011;63714;55.812;37.658;2023-06-26T05:10:43;15.35;;;9.48;;
75139;SDS011;63714;55.812;37.658;2023-06-26T05:13:09;15.18;;;10.55;;
75139;SDS011;63714;55.812;37.658;2023-06-26T05:15:36;17.02;;;10.13;;
75139;SDS011;63714;55.812;37.658;2023-06-26T05:18:02;13.32;;;9.88;;
75139;SDS011;63714;55.812;37.658;2023-06-26T05:20:28;14.15;;;9.93;;
75139;SDS011;63714;55.812;37.658;2023-06-26T05:22:53;16.00;;;10.02;;
75139;SDS011;63714;55.812;37.658;2023-06-26T05:25:20;16.45;;;9.30;;
75139;SDS011;63714;55.812;37.658;2023-06-26T05:27:47;11.50;;;9.18;;
75139;SDS011;63714;55.812;37.658;2023-06-26T05:30:13;11.90;;;9.27;;
75139;SDS011;63714;55.812;37.658;2023-06-26T05:32:39;12.93;;;8.77;;
75139;SDS011;63714;55.812;37.658;2023-06-26T05:35:05;11.93;;;8.05;;
75139;SDS011;63714;55.812;37.658;2023-06-26T05:37:32;12.10;;;7.68;;
75139;SDS011;63714;55.812;37.658;2023-06-26T05:40:00;9.20;;;7.03;;
75139;SDS011;63714;55.812;37.658;2023-06-26T05:44:53;10.07;;;7.55;;
75139;SDS011;63714;55.812;37.658;2023-06-26T05:47:19;8.52;;;6.13;;
75139;SDS011;63714;55.812;37.658;2023-06-26T05:49:44;7.18;;;6.28;;
75139;SDS011;63714;55.812;37.658;2023-06-26T05:52:10;5.97;;;5.38;;
75139;SDS011;63714;55.812;37.658;2023-06-26T05:54:36;8.63;;;5.82;;
75139;SDS011;63714;55.812;37.658;2023-06-26T05:57:02;6.70;;;5.15;;
75139;SDS011;63714;55.812;37.658;2023-06-26T05:59:33;6.05;;;5.10;;
75139;SDS011;63714;55.812;37.658;2023-06-26T06:01:59;6.78;;;5.32;;
75139;SDS011;63714;55.812;37.658;2023-06-26T06:04:25;5.97;;;5.38;;
75139;SDS011;63714;55.812;37.658;2023-06-26T06:06:51;4.97;;;4.47;;
75139;SDS011;63714;55.812;37.658;2023-06-26T06:09:16;5.97;;;4.80;;
75139;SDS011;63714;55.812;37.658;2023-06-26T06:11:42;5.55;;;4.82;;
75139;SDS011;63714;55.812;37.658;2023-06-26T06:14:08;6.00;;;4.53;;
75139;SDS011;63714;55.812;37.658;2023-06-26T06:16:33;5.43;;;4.93;;
75139;SDS011;63714;55.812;37.658;2023-06-26T06:18:59;6.38;;;5.38;;
75139;SDS011;63714;55.812;37.658;2023-06-26T06:21:25;7.03;;;6.03;;
75139;SDS011;63714;55.812;37.658;2023-06-26T06:23:50;7.28;;;5.50;;
75139;SDS011;63714;55.812;37.658;2023-06-26T06:26:16;5.85;;;5.30;;
75139;SDS011;63714;55.812;37.658;2023-06-26T06:28:42;5.90;;;5.30;;
75139;SDS011;63714;55.812;37.658;2023-06-26T06:31:07;5.85;;;5.30;;
75139;SDS011;63714;55.812;37.658;2023-06-26T06:33:33;6.28;;;5.50;;
75139;SDS011;63714;55.812;37.658;2023-06-26T06:35:59;6.05;;;5.45;;
75139;SDS011;63714;55.812;37.658;2023-06-26T06:38:25;5.93;;;5.32;;
75139;SDS011;63714;55.812;37.658;2023-06-26T06:40:51;5.85;;;5.10;;
75139;SDS011;63714;55.812;37.658;2023-06-26T06:43:16;5.25;;;4.47;;
75139;SDS011;63714;55.812;37.658;2023-06-26T06:45:42;5.32;;;4.63;;
75139;SDS011;63714;55.812;37.658;2023-06-26T06:48:08;5.75;;;5.18;;
75139;SDS011;63714;55.812;37.658;2023-06-26T06:50:33;5.88;;;4.82;;
75139;SDS011;63714;55.812;37.658;2023-06-26T06:52:59;6.38;;;4.90;;
75139;SDS011;63714;55.812;37.658;2023-06-26T06:55:25;7.68;;;5.15;;
75139;SDS011;63714;55.812;37.658;2023-06-26T06:57:51;6.65;;;4.72;;
75139;SDS011;63714;55.812;37.658;2023-06-26T07:00:17;5.88;;;4.75;;
75139;SDS011;63714;55.812;37.658;2023-06-26T07:02:44;8.20;;;4.43;;
75139;SDS011;63714;55.812;37.658;2023-06-26T07:05:10;4.93;;;4.13;;
75139;SDS011;63714;55.812;37.658;2023-06-26T07:07:36;5.05;;;4.45;;
75139;SDS011;63714;55.812;37.658;2023-06-26T07:12:30;6.43;;;5.38;;
75139;SDS011;63714;55.812;37.658;2023-06-26T07:14:56;6.80;;;5.45;;
75139;SDS011;63714;55.812;37.658;2023-06-26T07:17:22;6.35;;;5.18;;
75139;SDS011;63714;55.812;37.658;2023-06-26T07:19:48;5.32;;;4.82;;
75139;SDS011;63714;55.812;37.658;2023-06-26T07:22:15;6.13;;;4.75;;
75139;SDS011;63714;55.812;37.658;2023-06-26T07:24:41;6.05;;;4.75;;
75139;SDS011;63714;55.812;37.658;2023-06-26T07:27:07;5.93;;;4.43;;
75139;SDS011;63714;55.812;37.658;2023-06-26T07:29:32;5.82;;;4.60;;
75139;SDS011;63714;55.812;37.658;2023-06-26T07:31:58;5.10;;;4.60;;
75139;SDS011;63714;55.812;37.658;2023-06-26T07:34:24;7.70;;;4.80;;
75139;SDS011;63714;55.812;37.658;2023-06-26T07:36:49;5.32;;;4.65;;
75139;SDS011;63714;55.812;37.658;2023-06-26T07:39:15;5.07;;;4.40;;
75139;SDS011;63714;55.812;37.658;2023-06-26T07:41:40;6.43;;;4.65;;
75139;SDS011;63714;55.812;37.658;2023-06-26T07:44:06;5.57;;;4.57;;
75139;SDS011;63714;55.812;37.658;2023-06-26T07:46:32;6.03;;;4.78;;
75139;SDS011;63714;55.812;37.658;2023-06-26T07:48:57;6.05;;;4.95;;
75139;SDS011;63714;55.812;37.658;2023-06-26T07:51:23;11.48;;;5.03;;
75139;SDS011;63714;55.812;37.658;2023-06-26T07:53:49;6.28;;;4.95;;
75139;SDS011;63714;55.812;37.658;2023-06-26T07:58:41;5.18;;;4.65;;
75139;SDS011;63714;55.812;37.658;2023-06-26T08:01:07;4.70;;;4.30;;
75139;SDS011;63714;55.812;37.658;2023-06-26T08:03:32;5.07;;;4.57;;
75139;SDS011;63714;55.812;37.658;2023-06-26T08:05:58;5.68;;;4.68;;
75139;SDS011;63714;55.812;37.658;2023-06-26T08:08:23;5.60;;;4.63;;
75139;SDS011;63714;55.812;37.658;2023-06-26T08:10:49;6.15;;;4.65;;
75139;SDS011;63714;55.812;37.658;2023-06-26T08:13:14;6.82;;;5.35;;
75139;SDS011;63714;55.812;37.658;2023-06-26T08:15:40;5.10;;;4.40;;
75139;SDS011;63714;55.812;37.658;2023-06-26T08:18:06;5.53;;;5.00;;
75139;SDS011;63714;55.812;37.658;2023-06-26T08:20:31;5.47;;;4.88;;
75139;SDS011;63714;55.812;37.658;2023-06-26T08:22:57;5.47;;;4.72;;
75139;SDS011;63714;55.812;37.658;2023-06-26T08:25:22;5.28;;;4.78;;
75139;SDS011;63714;55.812;37.658;2023-06-26T08:27:48;5.25;;;4.57;;
75139;SDS011;63714;55.812;37.658;2023-06-26T08:30:14;5.60;;;5.00;;
75139;SDS011;63714;55.812;37.658;2023-06-26T08:32:39;7.47;;;5.03;;
75139;SDS011;63714;55.812;37.658;2023-06-26T08:35:06;4.90;;;4.47;;
75139;SDS011;63714;55.812;37.658;2023-06-26T08:37:32;6.05;;;4.60;;
75139;SDS011;63714;55.812;37.658;2023-06-26T08:40:00;5.10;;;4.53;;
75139;SDS011;63714;55.812;37.658;2023-06-26T08:42:27;5.30;;;4.78;;
75139;SDS011;63714;55.812;37.658;2023-06-26T08:44:53;5.47;;;4.97;;
75139;SDS011;63714;55.812;37.658;2023-06-26T08:47:19;6.88;;;5.68;;
75139;SDS011;63714;55.812;37.658;2023-06-26T08:52:35;5.47;;;4.47;;
75139;SDS011;63714;55.812;37.658;2023-06-26T08:55:06;5.15;;;4.65;;
75139;SDS011;63714;55.812;37.658;2023-06-26T08:57:34;6.30;;;5.03;;
75139;SDS011;63714;55.812;37.658;2023-06-26T09:00:02;5.65;;;5.15;;
75139;SDS011;63714;55.812;37.658;2023-06-26T09:02:30;7.43;;;5.25;;
75139;SDS011;63714;55.812;37.658;2023-06-26T09:04:57;5.28;;;4.78;;
75139;SDS011;63714;55.812;37.658;2023-06-26T09:07:23;5.13;;;4.63;;
75139;SDS011;63714;55.812;37.658;2023-06-26T09:09:48;5.43;;;4.72;;
75139;SDS011;63714;55.812;37.658;2023-06-26T09:12:14;5.82;;;4.45;;
75139;SDS011;63714;55.812;37.658;2023-06-26T09:14:40;6.95;;;5.10;;
75139;SDS011;63714;55.812;37.658;2023-06-26T09:17:06;10.52;;;5.88;;
75139;SDS011;63714;55.812;37.658;2023-06-26T09:19:32;7.60;;;4.82;;
75139;SDS011;63714;55.812;37.658;2023-06-26T09:21:57;7.68;;;5.45;;
75139;SDS011;63714;55.812;37.658;2023-06-26T09:24:23;6.93;;;5.38;;
75139;SDS011;63714;55.812;37.658;2023-06-26T09:26:50;6.43;;;5.43;;
75139;SDS011;63714;55.812;37.658;2023-06-26T09:29:16;7.20;;;4.70;;
75139;SDS011;63714;55.812;37.658;2023-06-26T09:31:43;5.50;;;4.75;;
75139;SDS011;63714;55.812;37.658;2023-06-26T09:34:09;9.00;;;5.90;;
75139;SDS011;63714;55.812;37.658;2023-06-26T09:36:36;7.15;;;5.03;;
75139;SDS011;63714;55.812;37.658;2023-06-26T09:39:07;7.32;;;4.80;;
75139;SDS011;63714;55.812;37.658;2023-06-26T09:41:36;8.63;;;5.60;;
75139;SDS011;63714;55.812;37.658;2023-06-26T09:44:05;7.95;;;7.00;;
75139;SDS011;63714;55.812;37.658;2023-06-26T09:46:32;8.77;;;6.78;;
75139;SDS011;63714;55.812;37.658;2023-06-26T09:49:01;9.77;;;6.70;;
75139;SDS011;63714;55.812;37.658;2023-06-26T09:51:34;5.45;;;4.88;;
75139;SDS011;63714;55.812;37.658;2023-06-26T09:54:01;5.78;;;5.10;;
75139;SDS011;63714;55.812;37.658;2023-06-26T09:56:28;6.43;;;5.22;;
75139;SDS011;63714;55.812;37.658;2023-06-26T09:58:55;7.32;;;5.88;;
75139;SDS011;63714;55.812;37.658;2023-06-26T10:01:25;6.55;;;5.03;;
75139;SDS011;63714;55.812;37.658;2023-06-26T10:03:51;5.55;;;4.65;;
75139;SDS011;63714;55.812;37.658;2023-06-26T10:06:19;5.15;;;4.65;;
75139;SDS011;63714;55.812;37.658;2023-06-26T10:08:47;6.85;;;4.35;;
75139;SDS011;63714;55.812;37.658;2023-06-26T10:11:16;6.65;;;5.05;;
75139;SDS011;63714;55.812;37.658;2023-06-26T10:13:44;9.52;;;5.22;;
75139;SDS011;63714;55.812;37.658;2023-06-26T10:16:13;6.35;;;4.93;;
75139;SDS011;63714;55.812;37.658;2023-06-26T10:18:52;6.25;;;5.25;;
75139;SDS011;63714;55.812;37.658;2023-06-26T10:21:22;9.32;;;5.85;;
75139;SDS011;63714;55.812;37.658;2023-06-26T10:23:49;7.25;;;4.90;;
75139;SDS011;63714;55.812;37.658;2023-06-26T10:26:17;5.50;;;4.63;;
75139;SDS011;63714;55.812;37.658;2023-06-26T10:28:46;6.43;;;5.13;;
75139;SDS011;63714;55.812;37.658;2023-06-26T10:31:17;5.75;;;4.88;;
75139;SDS011;63714;55.812;37.658;2023-06-26T10:33:46;8.00;;;6.75;;
75139;SDS011;63714;55.812;37.658;2023-06-26T10:36:14;7.05;;;5.32;;
75139;SDS011;63714;55.812;37.658;2023-06-26T10:39:03;6.97;;;5.65;;
75139;SDS011;63714;55.812;37.658;2023-06-26T10:41:36;8.50;;;5.53;;
75139;SDS011;63714;55.812;37.658;2023-06-26T10:44:15;4.60;;;3.92;;
75139;SDS011;63714;55.812;37.658;2023-06-26T10:46:49;8.75;;;6.40;;
75139;SDS011;63714;55.812;37.658;2023-06-26T10:49:18;6.47;;;5.45;;
75139;SDS011;63714;55.812;37.658;2023-06-26T10:51:50;5.55;;;4.78;;
75139;SDS011;63714;55.812;37.658;2023-06-26T10:54:17;5.55;;;4.57;;
75139;SDS011;63714;55.812;37.658;2023-06-26T10:56:45;8.00;;;4.47;;
75139;SDS011;63714;55.812;37.658;2023-06-26T10:59:13;7.53;;;5.40;;
75139;SDS011;63714;55.812;37.658;2023-06-26T11:01:41;7.22;;;4.75;;
75139;SDS011;63714;55.812;37.658;2023-06-26T11:04:10;8.32;;;5.97;;
75139;SDS011;63714;55.812;37.658;2023-06-26T11:06:38;6.57;;;4.97;;
75139;SDS011;63714;55.812;37.658;2023-06-26T11:14:23;6.22;;;4.85;;
75139;SDS011;63714;55.812;37.658;2023-06-26T11:16:50;6.28;;;5.15;;
75139;SDS011;63714;55.812;37.658;2023-06-26T11:19:17;6.20;;;4.63;;
75139;SDS011;63714;55.812;37.658;2023-06-26T11:21:43;6.07;;;4.68;;
75139;SDS011;63714;55.812;37.658;2023-06-26T11:24:10;6.50;;;5.05;;
75139;SDS011;63714;55.812;37.658;2023-06-26T11:26:37;6.57;;;4.30;;
75139;SDS011;63714;55.812;37.658;2023-06-26T11:29:04;6.80;;;5.13;;
75139;SDS011;63714;55.812;37.658;2023-06-26T11:31:30;5.45;;;4.47;;
75139;SDS011;63714;55.812;37.658;2023-06-26T11:34:04;7.65;;;4.18;;
75139;SDS011;63714;55.812;37.658;2023-06-26T11:36:37;5.85;;;3.95;;
75139;SDS011;63714;55.812;37.658;2023-06-26T11:39:05;6.90;;;5.00;;
75139;SDS011;63714;55.812;37.658;2023-06-26T11:41:32;7.85;;;4.22;;
75139;SDS011;63714;55.812;37.658;2023-06-26T11:44:05;6.45;;;5.10;;
75139;SDS011;63714;55.812;37.658;2023-06-26T11:46:35;6.55;;;4.65;;
75139;SDS011;63714;55.812;37.658;2023-06-26T11:49:05;6.50;;;4.65;;
75139;SDS011;63714;55.812;37.658;2023-06-26T11:51:33;5.25;;;4.22;;
75139;SDS011;63714;55.812;37.658;2023-06-26T11:54:01;5.93;;;4.25;;
75139;SDS011;63714;55.812;37.658;2023-06-26T11:56:28;5.93;;;4.45;;
75139;SDS011;63714;55.812;37.658;2023-06-26T11:59:04;4.80;;;4.30;;
75139;SDS011;63714;55.812;37.658;2023-06-26T12:01:41;5.85;;;4.18;;
75139;SDS011;63714;55.812;37.658;2023-06-26T12:04:11;7.00;;;4.38;;
75139;SDS011;63714;55.812;37.658;2023-06-26T12:06:51;6.43;;;4.35;;
75139;SDS011;63714;55.812;37.658;2023-06-26T12:09:22;8.85;;;5.00;;
75139;SDS011;63714;55.812;37.658;2023-06-26T12:11:49;10.02;;;4.38;;
75139;SDS011;63714;55.812;37.658;2023-06-26T12:14:20;15.82;;;11.43;;
75139;SDS011;63714;55.812;37.658;2023-06-26T12:16:47;9.48;;;4.40;;
75139;SDS011;63714;55.812;37.658;2023-06-26T12:19:13;5.43;;;4.10;;
75139;SDS011;63714;55.812;37.658;2023-06-26T12:24:18;8.57;;;4.55;;
75139;SDS011;63714;55.812;37.658;2023-06-26T12:26:46;5.90;;;3.92;;
75139;SDS011;63714;55.812;37.658;2023-06-26T12:29:17;7.82;;;4.40;;
75139;SDS011;63714;55.812;37.658;2023-06-26T12:31:46;7.38;;;4.47;;
75139;SDS011;63714;55.812;37.658;2023-06-26T12:34:19;5.07;;;4.32;;
75139;SDS011;63714;55.812;37.658;2023-06-26T12:36:50;6.32;;;4.38;;
75139;SDS011;63714;55.812;37.658;2023-06-26T12:39:17;6.43;;;4.35;;
75139;SDS011;63714;55.812;37.658;2023-06-26T12:41:47;5.75;;;4.25;;
75139;SDS011;63714;55.812;37.658;2023-06-26T12:44:20;5.63;;;4.63;;
75139;SDS011;63714;55.812;37.658;2023-06-26T12:46:59;6.90;;;4.45;;
75139;SDS011;63714;55.812;37.658;2023-06-26T12:49:42;6.45;;;4.43;;
75139;SDS011;63714;55.812;37.658;2023-06-26T12:52:15;6.05;;;4.43;;
75139;SDS011;63714;55.812;37.658;2023-06-26T12:54:42;6.43;;;4.53;;
75139;SDS011;63714;55.812;37.658;2023-06-26T12:57:08;6.53;;;4.45;;
75139;SDS011;63714;55.812;37.658;2023-06-26T12:59:38;7.43;;;4.75;;
75139;SDS011;63714;55.812;37.658;2023-06-26T13:02:04;5.65;;;4.72;;
75139;SDS011;63714;55.812;37.658;2023-06-26T13:04:30;5.15;;;4.32;;
75139;SDS011;63714;55.812;37.658;2023-06-26T13:06:56;7.03;;;4.47;;
75139;SDS011;63714;55.812;37.658;2023-06-26T13:09:22;5.00;;;4.28;;
75139;SDS011;63714;55.812;37.658;2023-06-26T13:11:50;4.55;;;3.75;;
75139;SDS011;63714;55.812;37.658;2023-06-26T13:14:16;5.50;;;4.20;;
75139;SDS011;63714;55.812;37.658;2023-06-26T13:16:42;7.28;;;4.03;;
75139;SDS011;63714;55.812;37.658;2023-06-26T13:19:07;7.65;;;4.43;;
75139;SDS011;63714;55.812;37.658;2023-06-26T13:21:34;5.90;;;4.13;;
75139;SDS011;63714;55.812;37.658;2023-06-26T13:24:00;6.38;;;4.15;;
75139;SDS011;63714;55.812;37.658;2023-06-26T13:26:26;5.30;;;4.18;;
75139;SDS011;63714;55.812;37.658;2023-06-26T13:28:54;5.18;;;4.10;;
75139;SDS011;63714;55.812;37.658;2023-06-26T13:31:20;6.85;;;4.35;;
75139;SDS011;63714;55.812;37.658;2023-06-26T13:33:47;7.43;;;4.57;;
75139;SDS011;63714;55.812;37.658;2023-06-26T13:36:17;5.70;;;3.97;;
75139;SDS011;63714;55.812;37.658;2023-06-26T13:38:43;6.85;;;4.40;;
75139;SDS011;63714;55.812;37.658;2023-06-26T13:41:10;5.22;;;4.53;;
75139;SDS011;63714;55.812;37.658;2023-06-26T13:43:36;6.07;;;4.22;;
75139;SDS011;63714;55.812;37.658;2023-06-26T13:46:03;5.47;;;4.10;;
75139;SDS011;63714;55.812;37.658;2023-06-26T13:48:28;6.93;;;4.22;;
75139;SDS011;63714;55.812;37.658;2023-06-26T13:50:54;4.95;;;4.20;;
75139;SDS011;63714;55.812;37.658;2023-06-26T13:53:20;5.85;;;3.78;;
75139;SDS011;63714;55.812;37.658;2023-06-26T13:55:46;5.55;;;3.88;;
75139;SDS011;63714;55.812;37.658;2023-06-26T13:58:12;5.78;;;3.90;;
75139;SDS011;63714;55.812;37.658;2023-06-26T14:00:39;6.05;;;4.15;;
75139;SDS011;63714;55.812;37.658;2023-06-26T14:03:05;7.22;;;4.25;;
75139;SDS011;63714;55.812;37.658;2023-06-26T14:05:35;5.35;;;4.03;;
75139;SDS011;63714;55.812;37.658;2023-06-26T14:08:04;6.88;;;4.25;;
75139;SDS011;63714;55.812;37.658;2023-06-26T14:10:32;6.35;;;4.20;;
75139;SDS011;63714;55.812;37.658;2023-06-26T14:12:59;6.53;;;3.75;;
75139;SDS011;63714;55.812;37.658;2023-06-26T14:15:25;5.82;;;4.57;;
75139;SDS011;63714;55.812;37.658;2023-06-26T14:17:51;4.82;;;4.03;;
75139;SDS011;63714;55.812;37.658;2023-06-26T14:20:17;5.88;;;4.65;;
75139;SDS011;63714;55.812;37.658;2023-06-26T14:22:47;6.25;;;4.50;;
75139;SDS011;63714;55.812;37.658;2023-06-26T14:25:14;6.43;;;4.68;;
75139;SDS011;63714;55.812;37.658;2023-06-26T14:27:41;8.05;;;4.07;;
75139;SDS011;63714;55.812;37.658;2023-06-26T14:30:07;6.70;;;4.35;;
75139;SDS011;63714;55.812;37.658;2023-06-26T14:32:34;5.63;;;3.92;;
75139;SDS011;63714;55.812;37.658;2023-06-26T14:35:02;5.50;;;4.30;;
75139;SDS011;63714;55.812;37.658;2023-06-26T14:37:35;5.60;;;4.00;;
75139;SDS011;63714;55.812;37.658;2023-06-26T14:40:02;6.25;;;4.32;;
75139;SDS011;63714;55.812;37.658;2023-06-26T14:42:32;5.97;;;3.92;;
75139;SDS011;63714;55.812;37.658;2023-06-26T14:44:59;7.32;;;4.07;;
75139;SDS011;63714;55.812;37.658;2023-06-26T14:47:24;5.38;;;4.05;;
75139;SDS011;63714;55.812;37.658;2023-06-26T14:49:50;6.05;;;4.22;;
75139;SDS011;63714;55.812;37.658;2023-06-26T14:52:15;6.13;;;4.22;;